Time;durP1;ratioP1;P1;durP2;ratioP2;P2;SDS_P1;SDS_P2;PMS_P1;PMS_P2;Temp;Humidity;BMP_temperature;BMP_pressure;BME280_temperature;BME280_humidity;BME280_pressure;Samples;Min_cycle;Max_cycle;Signal;HPM_P1;HPM_P2
2022/10/25 00:02:20;;;;;;;26.60;15.48;;;13.40;99.90;;;;;;4935460;29;20043;-71
2022/10/25 00:04:46;;;;;;;26.00;14.85;;;13.30;99.90;;;;;;4952588;29;20394;-71
2022/10/25 00:07:12;;;;;;;26.92;15.27;;;13.30;99.90;;;;;;4954259;28;20055;-71
2022/10/25 00:09:37;;;;;;;29.85;15.43;;;13.30;99.90;;;;;;4938597;29;20047;-71
2022/10/25 00:12:04;;;;;;;26.20;14.93;;;13.20;99.90;;;;;;4931248;29;20240;-71
2022/10/25 00:14:30;;;;;;;24.85;14.23;;;13.10;99.90;;;;;;4952894;29;20043;-71
2022/10/25 00:16:55;;;;;;;25.27;14.60;;;13.00;99.90;;;;;;4942537;29;20043;-71
2022/10/25 00:19:21;;;;;;;28.13;14.80;;;12.90;99.90;;;;;;4941665;29;20422;-71
2022/10/25 00:21:46;;;;;;;23.60;13.13;;;12.90;99.90;;;;;;4953665;28;20494;-71
2022/10/25 00:24:13;;;;;;;26.55;14.70;;;12.80;99.90;;;;;;4945765;28;20086;-71
2022/10/25 00:26:41;;;;;;;30.25;15.15;;;12.70;99.90;;;;;;4949435;29;20054;-71
2022/10/25 00:29:08;;;;;;;26.00;13.60;;;12.70;99.90;;;;;;4952442;28;20126;-71
2022/10/25 00:31:35;;;;;;;26.48;13.73;;;12.60;99.90;;;;;;4952454;29;20547;-70
2022/10/25 00:34:01;;;;;;;24.10;13.68;;;12.60;99.90;;;;;;4944752;29;20043;-70
2022/10/25 00:36:26;;;;;;;28.08;15.13;;;12.60;99.90;;;;;;4951480;29;20093;-70
2022/10/25 00:38:55;;;;;;;27.50;14.38;;;12.60;99.90;;;;;;4953773;28;20406;-71
2022/10/25 00:41:24;;;;;;;31.02;14.30;;;12.50;99.90;;;;;;4950621;28;20118;-71
2022/10/25 00:43:53;;;;;;;27.70;13.73;;;12.60;99.90;;;;;;4942438;29;20072;-71
2022/10/25 00:46:24;;;;;;;32.97;14.98;;;12.50;99.90;;;;;;4952162;29;20047;-71
2022/10/25 00:48:56;;;;;;;;;;;12.50;99.90;;;;;;4952880;28;20058;-70
2022/10/25 00:51:24;;;;;;;;;;;12.50;99.90;;;;;;4976122;23;19922;-68
2022/10/25 00:53:50;;;;;;;32.35;13.93;;;12.50;99.90;;;;;;4949512;28;19918;-68
2022/10/25 00:56:19;;;;;;;31.13;14.32;;;12.60;99.90;;;;;;4947450;29;20125;-70
2022/10/25 00:58:49;;;;;;;28.70;14.10;;;12.60;99.90;;;;;;4946765;29;20055;-70
2022/10/25 01:01:15;;;;;;;30.27;14.23;;;12.70;99.90;;;;;;4945083;28;20070;-71
2022/10/25 01:03:43;;;;;;;28.30;13.90;;;12.80;99.90;;;;;;4950609;29;20126;-71
2022/10/25 01:06:18;;;;;;;28.05;13.90;;;12.80;99.90;;;;;;4948413;28;20047;-71
2022/10/25 01:08:45;;;;;;;25.25;13.18;;;12.80;99.90;;;;;;4948780;29;20039;-70
2022/10/25 01:11:11;;;;;;;28.52;13.48;;;12.90;99.90;;;;;;4952049;28;20043;-71
2022/10/25 01:13:37;;;;;;;25.48;13.05;;;12.90;99.90;;;;;;4952373;28;20453;-71
2022/10/25 01:16:17;;;;;;;26.20;12.75;;;12.90;99.90;;;;;;4946770;29;20047;-70
2022/10/25 01:18:58;;;;;;;27.52;11.70;;;12.90;99.90;;;;;;4937033;29;20118;-71
2022/10/25 01:22:07;;;;;;;24.20;12.35;;;12.90;99.90;;;;;;4950826;28;20043;-71
2022/10/25 01:24:53;;;;;;;25.08;13.25;;;12.80;99.90;;;;;;4950597;29;20055;-71
2022/10/25 01:27:19;;;;;;;21.35;11.82;;;12.80;99.90;;;;;;4955710;28;20043;-71
2022/10/25 01:29:59;;;;;;;23.20;11.68;;;12.80;99.90;;;;;;4955828;28;20098;-71
2022/10/25 01:32:38;;;;;;;21.23;11.65;;;12.80;99.90;;;;;;4943962;29;20383;-71
2022/10/25 01:35:13;;;;;;;25.20;12.20;;;12.70;99.90;;;;;;4948421;29;20051;-71
2022/10/25 01:37:56;;;;;;;21.95;10.32;;;12.60;99.90;;;;;;4955787;28;20050;-71
2022/10/25 01:40:55;;;;;;;19.58;10.00;;;12.70;99.90;;;;;;4948618;28;20466;-70
2022/10/25 01:43:38;;;;;;;28.08;11.10;;;12.60;99.90;;;;;;4949280;29;20070;-70
2022/10/25 01:46:38;;;;;;;20.63;11.40;;;12.50;99.90;;;;;;4935348;29;20051;-70
2022/10/25 01:49:07;;;;;;;21.13;10.93;;;12.50;99.90;;;;;;4934203;29;20047;-70
2022/10/25 01:51:37;;;;;;;25.58;11.93;;;12.50;99.90;;;;;;4916795;28;1056530;-70
2022/10/25 01:54:15;;;;;;;20.85;10.48;;;12.50;99.90;;;;;;4956581;28;20043;-69
2022/10/25 01:57:04;;;;;;;22.25;10.32;;;12.40;99.90;;;;;;4951723;29;20461;-69
2022/10/25 01:59:42;;;;;;;21.95;11.05;;;12.40;99.90;;;;;;4946373;28;20045;-69
2022/10/25 02:02:29;;;;;;;22.23;11.73;;;12.40;99.90;;;;;;4949842;29;20043;-69
2022/10/25 02:05:26;;;;;;;26.20;11.85;;;12.30;99.90;;;;;;4950206;29;20042;-69
2022/10/25 02:08:23;;;;;;;26.10;12.45;;;12.30;99.90;;;;;;4939153;29;20047;-70
2022/10/25 02:10:57;;;;;;;23.83;11.43;;;12.40;99.90;;;;;;4945918;29;20055;-69
2022/10/25 02:13:32;;;;;;;29.45;12.95;;;12.40;99.90;;;;;;4948374;28;20580;-68
2022/10/25 02:16:07;;;;;;;26.60;12.77;;;12.50;99.90;;;;;;4946554;29;20055;-69
2022/10/25 02:18:37;;;;;;;26.92;13.63;;;12.60;99.90;;;;;;4955293;29;20054;-69
2022/10/25 02:21:04;;;;;;;27.48;13.55;;;12.70;99.90;;;;;;4947648;28;20039;-68
2022/10/25 02:23:33;;;;;;;25.13;13.05;;;12.80;99.90;;;;;;4948639;29;20039;-69
2022/10/25 02:26:00;;;;;;;28.70;13.82;;;12.80;99.90;;;;;;4956246;28;20035;-69
2022/10/25 02:28:27;;;;;;;26.23;13.43;;;12.90;99.90;;;;;;4951357;28;20043;-71
2022/10/25 02:30:55;;;;;;;28.63;14.00;;;12.90;99.90;;;;;;4941469;28;20126;-71
2022/10/25 02:33:21;;;;;;;32.90;14.25;;;12.90;99.90;;;;;;4952509;28;20524;-71
2022/10/25 02:36:05;;;;;;;34.08;15.30;;;12.90;99.90;;;;;;4954901;29;20043;-69
2022/10/25 02:38:31;;;;;;;24.83;14.40;;;12.90;99.90;;;;;;4956022;28;20036;-69
2022/10/25 02:40:59;;;;;;;31.75;15.70;;;13.00;99.90;;;;;;4949327;28;20148;-69
2022/10/25 02:43:24;;;;;;;31.45;15.05;;;13.10;99.90;;;;;;4954483;29;20051;-69
2022/10/25 02:45:50;;;;;;;25.83;14.25;;;13.10;99.90;;;;;;4952353;28;20036;-69
2022/10/25 02:48:15;;;;;;;31.15;14.35;;;13.20;99.90;;;;;;4943219;29;20090;-70
2022/10/25 02:50:41;;;;;;;31.92;14.73;;;13.20;99.90;;;;;;4951860;28;20051;-69
2022/10/25 02:53:06;;;;;;;24.65;13.20;;;13.20;99.90;;;;;;4954452;29;20043;-69
2022/10/25 02:55:32;;;;;;;28.25;14.25;;;13.20;99.90;;;;;;4947739;29;20041;-71
2022/10/25 02:57:57;;;;;;;23.23;13.20;;;13.20;99.90;;;;;;4938841;29;20086;-69
2022/10/25 03:00:23;;;;;;;31.58;14.13;;;13.20;99.90;;;;;;4955233;28;20402;-69
2022/10/25 03:02:49;;;;;;;27.65;14.38;;;13.20;99.90;;;;;;4949026;28;20040;-69
2022/10/25 03:05:14;;;;;;;24.77;12.23;;;13.30;99.90;;;;;;4948670;29;20031;-69
2022/10/25 03:07:40;;;;;;;21.35;13.32;;;13.20;99.90;;;;;;4954533;28;20050;-70
2022/10/25 03:10:06;;;;;;;24.52;12.65;;;13.10;99.90;;;;;;4955437;28;20042;-70
2022/10/25 03:12:31;;;;;;;26.85;13.18;;;13.10;99.90;;;;;;4948271;29;20049;-69
2022/10/25 03:14:57;;;;;;;31.45;13.82;;;13.10;99.90;;;;;;4945868;29;20118;-69
2022/10/25 03:17:23;;;;;;;22.17;12.75;;;13.10;99.90;;;;;;4953913;29;20055;-69
2022/10/25 03:19:48;;;;;;;25.40;12.02;;;13.00;99.90;;;;;;4948689;28;20398;-69
2022/10/25 03:22:14;;;;;;;25.77;13.02;;;13.00;99.90;;;;;;4945812;29;20039;-69
2022/10/25 03:24:39;;;;;;;27.80;14.32;;;13.10;99.90;;;;;;4953499;29;20576;-69
2022/10/25 03:27:05;;;;;;;26.15;13.90;;;13.10;99.90;;;;;;4953715;29;20042;-69
2022/10/25 03:29:30;;;;;;;27.90;13.98;;;13.20;99.90;;;;;;4942302;28;20047;-69
2022/10/25 03:31:56;;;;;;;29.98;13.82;;;13.20;99.90;;;;;;4953022;29;20549;-70
2022/10/25 03:34:22;;;;;;;25.95;13.95;;;13.20;99.90;;;;;;4954002;29;20138;-69
2022/10/25 03:36:47;;;;;;;30.90;14.02;;;13.20;99.90;;;;;;4943639;29;20487;-69
2022/10/25 03:39:13;;;;;;;29.92;13.45;;;13.10;99.90;;;;;;4938644;29;20043;-67
2022/10/25 03:41:38;;;;;;;31.70;14.20;;;13.20;99.90;;;;;;4951073;29;20454;-69
2022/10/25 03:44:04;;;;;;;28.13;13.75;;;13.20;99.90;;;;;;4954231;28;20039;-71
2022/10/25 03:46:30;;;;;;;26.58;14.23;;;13.20;99.90;;;;;;4927309;29;20044;-71
2022/10/25 03:48:55;;;;;;;30.52;13.95;;;13.20;99.90;;;;;;4953798;29;20042;-71
2022/10/25 03:51:21;;;;;;;26.13;14.18;;;13.20;99.90;;;;;;4952100;29;20101;-71
2022/10/25 03:53:46;;;;;;;27.23;13.57;;;13.20;99.90;;;;;;4945163;29;20043;-71
2022/10/25 03:56:12;;;;;;;34.80;14.50;;;13.30;99.90;;;;;;4952039;29;20055;-71
2022/10/25 03:58:37;;;;;;;33.40;13.95;;;13.30;99.90;;;;;;4954515;28;20438;-71
2022/10/25 04:01:07;;;;;;;28.70;13.75;;;13.30;99.90;;;;;;4949666;28;20146;-70
2022/10/25 04:03:33;;;;;;;25.05;12.45;;;13.30;99.90;;;;;;4940672;29;20066;-71
2022/10/25 04:05:58;;;;;;;26.98;12.90;;;13.20;99.90;;;;;;4953417;28;20088;-71
2022/10/25 04:08:24;;;;;;;23.83;12.32;;;13.20;99.90;;;;;;4953984;28;20050;-71
2022/10/25 04:10:49;;;;;;;27.60;12.60;;;13.20;99.90;;;;;;4946596;28;20099;-70
2022/10/25 04:13:15;;;;;;;27.00;13.80;;;13.10;99.90;;;;;;4933340;29;20050;-69
2022/10/25 04:15:41;;;;;;;24.08;10.82;;;13.20;99.90;;;;;;4954049;28;20070;-69
2022/10/25 04:18:06;;;;;;;27.60;13.13;;;13.20;99.90;;;;;;4942308;29;20048;-69
2022/10/25 04:20:32;;;;;;;29.90;13.82;;;13.30;99.90;;;;;;4948623;28;20047;-68
2022/10/25 04:22:58;;;;;;;31.77;13.70;;;13.30;99.90;;;;;;4953735;28;20059;-70
2022/10/25 04:25:25;;;;;;;32.60;13.23;;;13.40;99.90;;;;;;4953954;28;20098;-69
2022/10/25 04:27:51;;;;;;;23.60;12.50;;;13.40;99.90;;;;;;4942297;29;20039;-70
2022/10/25 04:30:17;;;;;;;26.02;13.73;;;13.40;99.90;;;;;;4953733;28;20039;-69
2022/10/25 04:32:42;;;;;;;26.73;12.57;;;13.40;99.90;;;;;;4953359;28;20050;-69
2022/10/25 04:35:08;;;;;;;27.90;12.82;;;13.40;99.90;;;;;;4948598;29;20039;-70
2022/10/25 04:37:34;;;;;;;30.83;13.40;;;13.40;99.90;;;;;;4951551;29;20051;-70
2022/10/25 04:39:59;;;;;;;28.02;13.07;;;13.40;99.90;;;;;;4938835;29;20047;-70
2022/10/25 04:42:25;;;;;;;32.70;13.02;;;13.50;99.90;;;;;;4947687;28;20494;-70
2022/10/25 04:44:50;;;;;;;27.15;12.77;;;13.40;99.90;;;;;;4947297;29;20039;-69
2022/10/25 04:47:16;;;;;;;29.35;12.82;;;13.30;99.90;;;;;;4953082;28;20067;-70
2022/10/25 04:49:41;;;;;;;26.05;12.77;;;13.30;99.90;;;;;;4952615;28;20034;-70
2022/10/25 04:52:07;;;;;;;25.98;13.00;;;13.20;99.90;;;;;;4940642;29;20513;-69
2022/10/25 04:54:33;;;;;;;25.45;13.18;;;13.20;99.90;;;;;;4951838;28;20050;-70
2022/10/25 04:56:59;;;;;;;29.33;13.10;;;13.10;99.90;;;;;;4945457;28;20047;-70
2022/10/25 04:59:24;;;;;;;27.98;12.45;;;13.10;99.90;;;;;;4942549;28;20044;-70
2022/10/25 05:01:50;;;;;;;32.58;13.38;;;13.10;99.90;;;;;;4949041;28;20046;-70
2022/10/25 05:04:15;;;;;;;31.15;13.18;;;13.00;99.90;;;;;;4951912;29;20174;-70
2022/10/25 05:06:41;;;;;;;23.80;13.10;;;13.00;99.90;;;;;;4952974;28;20409;-69
2022/10/25 05:09:07;;;;;;;27.38;12.57;;;12.90;99.90;;;;;;4944707;28;20043;-70
2022/10/25 05:11:32;;;;;;;25.55;11.68;;;12.90;99.90;;;;;;4951700;29;20669;-69
2022/10/25 05:13:58;;;;;;;27.42;12.13;;;12.90;99.90;;;;;;4953438;28;20050;-69
2022/10/25 05:16:25;;;;;;;22.15;12.70;;;12.80;99.90;;;;;;4939438;28;20117;-69
2022/10/25 05:18:55;;;;;;;36.22;12.70;;;12.90;99.90;;;;;;4938381;29;20047;-69
2022/10/25 05:21:27;;;;;;;34.28;12.80;;;12.80;99.90;;;;;;4952679;28;20063;-69
2022/10/25 05:23:52;;;;;;;32.58;12.70;;;12.80;99.90;;;;;;4952199;29;20401;-69
2022/10/25 05:26:20;;;;;;;33.67;13.13;;;12.80;99.90;;;;;;4944386;28;20043;-69
2022/10/25 05:28:47;;;;;;;28.73;11.50;;;12.80;99.90;;;;;;4943646;29;20039;-69
2022/10/25 05:31:16;;;;;;;26.63;12.40;;;12.80;99.90;;;;;;4952513;28;20589;-70
2022/10/25 05:33:45;;;;;;;26.92;11.95;;;12.80;99.90;;;;;;4941154;28;20044;-69
2022/10/25 05:36:12;;;;;;;25.02;12.07;;;12.90;99.90;;;;;;4950502;29;20043;-69
2022/10/25 05:38:38;;;;;;;23.23;10.18;;;12.90;99.90;;;;;;4933914;28;20050;-69
2022/10/25 05:41:05;;;;;;;29.40;11.00;;;12.80;99.90;;;;;;4945652;28;20058;-68
2022/10/25 05:43:30;;;;;;;24.08;10.05;;;12.80;99.90;;;;;;4952739;28;20090;-69
2022/10/25 05:46:04;;;;;;;26.58;10.85;;;12.80;99.90;;;;;;4947463;28;20043;-69
2022/10/25 05:48:31;;;;;;;21.15;10.50;;;12.80;99.90;;;;;;4947602;29;20079;-69
2022/10/25 05:51:07;;;;;;;23.90;9.98;;;12.80;99.90;;;;;;4941234;28;20058;-69
2022/10/25 05:53:33;;;;;;;23.25;9.40;;;12.70;99.90;;;;;;4936640;29;20643;-69
2022/10/25 05:55:59;;;;;;;18.45;9.65;;;12.70;99.90;;;;;;4952318;28;20123;-69
2022/10/25 05:58:25;;;;;;;25.20;10.23;;;12.70;99.90;;;;;;4951415;29;20039;-70
2022/10/25 06:00:50;;;;;;;22.55;10.93;;;12.60;99.90;;;;;;4945525;28;20462;-70
2022/10/25 06:03:16;;;;;;;21.10;9.77;;;12.60;99.90;;;;;;4950282;28;20046;-71
2022/10/25 06:05:41;;;;;;;23.98;9.20;;;12.50;99.90;;;;;;4951076;29;20038;-73
2022/10/25 06:08:07;;;;;;;22.85;9.93;;;12.60;99.90;;;;;;4947956;28;20043;-70
2022/10/25 06:10:32;;;;;;;25.52;10.65;;;12.60;99.90;;;;;;4951419;28;20047;-73
2022/10/25 06:12:58;;;;;;;24.58;10.35;;;12.60;99.90;;;;;;4954674;29;20043;-69
2022/10/25 06:15:24;;;;;;;28.67;10.20;;;12.60;99.90;;;;;;4949191;28;20035;-69
2022/10/25 06:17:49;;;;;;;25.50;10.93;;;12.60;99.90;;;;;;4945411;29;20044;-69
2022/10/25 06:20:15;;;;;;;23.98;10.40;;;12.50;99.90;;;;;;4955940;28;20035;-71
2022/10/25 06:22:40;;;;;;;31.20;11.57;;;12.50;99.90;;;;;;4949773;29;20050;-69
2022/10/25 06:25:06;;;;;;;28.45;11.30;;;12.50;99.90;;;;;;4947738;29;20039;-69
2022/10/25 06:27:32;;;;;;;34.45;10.73;;;12.50;99.90;;;;;;4956240;28;20043;-69
2022/10/25 06:29:57;;;;;;;25.20;10.93;;;12.50;99.90;;;;;;4954593;29;20066;-70
2022/10/25 06:32:23;;;;;;;27.60;12.65;;;12.60;99.90;;;;;;4943731;28;20048;-71
2022/10/25 06:34:49;;;;;;;28.73;11.25;;;12.60;99.90;;;;;;4948661;29;20578;-69
2022/10/25 06:37:14;;;;;;;25.30;10.93;;;12.60;99.90;;;;;;4956020;28;20036;-69
2022/10/25 06:39:40;;;;;;;23.48;11.05;;;12.70;99.90;;;;;;4950551;28;20083;-69
2022/10/25 06:42:06;;;;;;;28.70;11.35;;;12.80;99.90;;;;;;4949743;29;20409;-70
2022/10/25 06:44:31;;;;;;;29.90;11.38;;;12.80;99.90;;;;;;4955557;28;20071;-69
2022/10/25 06:46:59;;;;;;;31.08;11.00;;;12.80;99.90;;;;;;4955351;28;20039;-69
2022/10/25 06:49:25;;;;;;;28.20;10.38;;;12.80;99.90;;;;;;4943568;29;20482;-70
2022/10/25 06:54:26;;;;;;;23.92;10.75;;;12.90;99.90;;;;;;5373083;23;20063;-74
2022/10/25 06:56:51;;;;;;;28.00;10.68;;;13.00;99.90;;;;;;4960539;28;20070;-73
2022/10/25 07:09:39;;;;;;;30.50;11.27;;;13.00;99.90;;;;;;5211121;23;20077;-73
2022/10/25 07:12:05;;;;;;;28.55;11.55;;;13.10;99.90;;;;;;4952011;29;20494;-71
2022/10/25 07:14:30;;;;;;;29.55;11.30;;;13.10;99.90;;;;;;4934018;29;20039;-70
2022/10/25 07:16:56;;;;;;;25.20;9.98;;;13.20;99.90;;;;;;4953626;29;20047;-69
2022/10/25 07:19:23;;;;;;;33.05;10.90;;;13.30;99.90;;;;;;4948769;28;20450;-71
2022/10/25 07:34:45;;;;;;;32.63;11.32;;;13.40;99.90;;;;;;6119858;23;20006;-65
2022/10/25 07:37:11;;;;;;;33.92;13.20;;;13.50;99.90;;;;;;4935428;29;20129;-74
2022/10/25 07:39:37;;;;;;;29.40;10.90;;;13.60;99.90;;;;;;4958468;23;20047;-65
2022/10/25 07:42:02;;;;;;;23.98;11.55;;;13.70;99.90;;;;;;4917866;29;20075;-65
2022/10/25 07:44:28;;;;;;;27.45;12.43;;;13.80;99.90;;;;;;4935312;29;20058;-65
2022/10/25 07:46:54;;;;;;;24.95;11.60;;;13.80;99.90;;;;;;4924633;29;20032;-67
2022/10/25 07:49:19;;;;;;;25.27;12.02;;;13.90;99.90;;;;;;4913070;29;20051;-64
2022/10/25 07:51:45;;;;;;;31.95;13.45;;;13.90;99.90;;;;;;4919311;28;20466;-66
2022/10/25 07:54:11;;;;;;;30.58;16.20;;;13.90;99.90;;;;;;4918568;29;20814;-67
2022/10/25 07:56:36;;;;;;;30.35;14.15;;;14.00;99.90;;;;;;4925288;29;20044;-66
2022/10/25 07:59:02;;;;;;;27.30;13.07;;;14.00;99.90;;;;;;4938535;29;20091;-65
2022/10/25 08:01:28;;;;;;;22.95;12.27;;;14.10;99.90;;;;;;4939049;29;20118;-67
2022/10/25 08:03:54;;;;;;;31.42;12.93;;;14.20;99.90;;;;;;4927250;29;20091;-67
2022/10/25 08:06:21;;;;;;;27.48;12.60;;;14.20;99.90;;;;;;4938343;29;20066;-68
2022/10/25 08:08:47;;;;;;;26.45;12.02;;;14.10;99.90;;;;;;4922831;29;20044;-67
2022/10/25 08:11:13;;;;;;;23.77;11.80;;;14.10;99.90;;;;;;4933728;29;20032;-67
2022/10/25 08:13:39;;;;;;;23.80;11.45;;;14.20;99.90;;;;;;4933820;29;20506;-67
2022/10/25 08:16:06;;;;;;;29.70;12.77;;;14.20;99.90;;;;;;4923361;29;20068;-67
2022/10/25 08:18:32;;;;;;;27.88;12.73;;;14.30;99.90;;;;;;4934501;29;20044;-65
2022/10/25 08:21:00;;;;;;;23.60;12.20;;;14.50;99.90;;;;;;4932371;29;20051;-67
2022/10/25 08:23:27;;;;;;;25.40;12.45;;;14.40;99.90;;;;;;4944231;29;20062;-67
2022/10/25 08:25:52;;;;;;;22.70;12.70;;;14.40;99.90;;;;;;4922550;28;20036;-67
2022/10/25 08:28:18;;;;;;;24.63;12.07;;;14.40;99.90;;;;;;4920328;29;20095;-67
2022/10/25 08:30:44;;;;;;;19.83;11.65;;;14.40;99.90;;;;;;4920330;29;20123;-67
2022/10/25 08:33:10;;;;;;;23.48;12.43;;;14.30;99.90;;;;;;4923179;29;20079;-67
2022/10/25 08:35:35;;;;;;;25.23;12.30;;;14.30;99.90;;;;;;4928318;29;20063;-67
2022/10/25 08:38:02;;;;;;;26.77;12.63;;;14.30;99.90;;;;;;4921367;29;20090;-67
2022/10/25 08:40:51;;;;;;;25.25;13.15;;;14.50;99.90;;;;;;4937295;29;20044;-66
2022/10/25 08:43:37;;;;;;;19.40;11.90;;;14.50;99.90;;;;;;4919035;29;20059;-67
2022/10/25 08:46:25;;;;;;;24.42;11.88;;;14.60;99.90;;;;;;4927864;29;20054;-65
2022/10/25 08:49:18;;;;;;;23.88;11.60;;;14.60;99.90;;;;;;4937691;29;20126;-67
2022/10/25 08:51:47;;;;;;;21.23;11.55;;;14.70;99.90;;;;;;4935949;29;20110;-66
2022/10/25 08:54:26;;;;;;;18.92;11.65;;;14.70;99.90;;;;;;4933768;29;20128;-69
2022/10/25 08:57:02;;;;;;;25.20;11.40;;;14.80;99.90;;;;;;4942943;29;20526;-68
2022/10/25 08:59:34;;;;;;;21.40;10.45;;;14.90;99.90;;;;;;4937271;29;20061;-69
2022/10/25 09:01:59;;;;;;;18.98;11.02;;;14.90;99.90;;;;;;4932119;29;20044;-68
2022/10/25 09:04:28;;;;;;;20.63;11.73;;;15.00;99.90;;;;;;4926036;29;20582;-69
2022/10/25 09:07:00;;;;;;;20.25;11.00;;;15.10;99.90;;;;;;4931833;29;20051;-70
2022/10/25 09:09:55;;;;;;;20.23;11.30;;;15.20;99.90;;;;;;4929177;29;20533;-70
2022/10/25 09:12:36;;;;;;;18.75;10.52;;;15.30;99.90;;;;;;4927164;29;20051;-69
2022/10/25 09:15:40;;;;;;;17.42;10.13;;;15.30;99.90;;;;;;4935616;29;20470;-69
2022/10/25 09:18:14;;;;;;;21.95;11.25;;;15.40;99.90;;;;;;4890956;29;20387;-70
2022/10/25 09:20:49;;;;;;;17.65;10.35;;;15.40;99.90;;;;;;4932541;29;20443;-69
2022/10/25 09:23:27;;;;;;;21.00;10.32;;;15.50;99.90;;;;;;4927607;29;20044;-69
2022/10/25 09:26:32;;;;;;;16.98;10.40;;;15.50;99.90;;;;;;4933197;29;20383;-69
2022/10/25 09:29:25;;;;;;;18.52;10.68;;;15.60;99.90;;;;;;4924469;29;20047;-69
2022/10/25 09:31:56;;;;;;;18.60;9.88;;;15.60;99.90;;;;;;4917266;29;20179;-69
2022/10/25 09:34:23;;;;;;;19.00;9.13;;;15.60;99.90;;;;;;4931093;29;20044;-69
2022/10/25 09:37:10;;;;;;;20.15;8.95;;;15.60;99.90;;;;;;4921479;29;20044;-69
2022/10/25 09:39:49;;;;;;;14.43;8.30;;;15.60;99.90;;;;;;4932257;29;20055;-70
2022/10/25 09:42:24;;;;;;;20.83;7.93;;;15.70;99.90;;;;;;4936383;29;20360;-70
2022/10/25 09:44:55;;;;;;;17.20;7.65;;;15.80;99.90;;;;;;4930002;29;20459;-69
2022/10/25 09:47:42;;;;;;;18.42;8.55;;;15.90;99.90;;;;;;4938132;29;20055;-69
2022/10/25 09:50:20;;;;;;;14.05;7.75;;;15.80;99.90;;;;;;4926964;29;20051;-70
2022/10/25 09:52:52;;;;;;;15.35;7.95;;;15.70;99.90;;;;;;4945514;29;20054;-70
2022/10/25 09:55:45;;;;;;;14.13;6.97;;;15.80;99.90;;;;;;4938389;29;20043;-69
2022/10/25 09:58:21;;;;;;;12.45;7.18;;;16.00;99.90;;;;;;4935393;29;20099;-67
2022/10/25 10:00:49;;;;;;;13.43;6.40;;;15.80;99.90;;;;;;4928351;29;20581;-66
2022/10/25 10:03:15;;;;;;;15.05;7.00;;;15.80;99.90;;;;;;4943981;29;20130;-69
2022/10/25 10:05:55;;;;;;;17.55;7.50;;;15.70;99.90;;;;;;4939334;28;20461;-69
2022/10/25 10:08:22;;;;;;;16.30;7.22;;;15.70;99.90;;;;;;4927772;29;20490;-68
2022/10/25 10:10:50;;;;;;;19.67;6.88;;;15.80;99.90;;;;;;4920791;29;20052;-67
2022/10/25 10:13:43;;;;;;;11.98;6.85;;;15.90;99.90;;;;;;4925541;29;20046;-68
2022/10/25 10:16:30;;;;;;;14.10;7.00;;;16.00;99.90;;;;;;4926124;29;20043;-68
2022/10/25 10:19:15;;;;;;;13.73;6.88;;;15.90;99.90;;;;;;4929595;29;20040;-68
2022/10/25 10:21:45;;;;;;;16.98;6.95;;;15.80;99.90;;;;;;4918916;29;20052;-68
2022/10/25 10:24:20;;;;;;;15.57;6.97;;;15.70;99.90;;;;;;4912230;29;20485;-68
2022/10/25 10:26:54;;;;;;;11.27;5.93;;;15.80;99.90;;;;;;4921696;29;20052;-68
2022/10/25 10:29:24;;;;;;;15.32;6.20;;;15.80;99.90;;;;;;4914381;29;20047;-68
2022/10/25 10:32:03;;;;;;;12.07;6.60;;;15.80;99.90;;;;;;4920674;29;20164;-68
2022/10/25 10:34:56;;;;;;;10.90;5.75;;;15.90;99.90;;;;;;4921630;29;20589;-68
2022/10/25 10:37:29;;;;;;;15.77;5.75;;;16.10;99.90;;;;;;4938200;29;20071;-70
2022/10/25 10:40:05;;;;;;;13.73;6.20;;;16.20;99.90;;;;;;4956310;29;20054;-68
2022/10/25 10:42:36;;;;;;;12.80;5.47;;;16.30;99.90;;;;;;4931721;29;20102;-69
2022/10/25 10:45:07;;;;;;;13.23;5.70;;;16.20;99.90;;;;;;4929442;29;20054;-69
2022/10/25 10:48:17;;;;;;;14.23;5.00;;;16.00;99.90;;;;;;4925252;29;20048;-68
2022/10/25 10:50:50;;;;;;;11.70;5.28;;;15.90;99.90;;;;;;4892069;29;20058;-68
2022/10/25 10:53:28;;;;;;;10.40;5.43;;;15.90;99.90;;;;;;4931376;29;20116;-69
2022/10/25 10:55:56;;;;;;;13.30;6.00;;;16.00;99.90;;;;;;4935085;29;20044;-69
2022/10/25 10:58:33;;;;;;;13.35;4.93;;;16.00;99.90;;;;;;4925106;29;20509;-69
2022/10/25 11:01:06;;;;;;;11.88;5.10;;;16.00;99.90;;;;;;4910193;29;20530;-69
2022/10/25 11:03:43;;;;;;;13.60;4.80;;;16.30;99.90;;;;;;4930342;29;20050;-69
2022/10/25 11:06:12;;;;;;;10.68;5.25;;;16.40;99.90;;;;;;4915224;29;20070;-69
2022/10/25 11:08:38;;;;;;;12.35;5.00;;;16.50;99.90;;;;;;4919602;29;20070;-69
2022/10/25 11:11:20;;;;;;;11.07;4.63;;;16.40;99.90;;;;;;4934503;29;20474;-69
2022/10/25 11:14:06;;;;;;;;;;;16.40;99.90;;;;;;4934608;29;20043;-69
2022/10/25 11:16:51;;;;;;;11.65;4.65;;;16.60;99.90;;;;;;4911472;29;19948;-69
2022/10/25 11:19:54;;;;;;;10.25;4.32;;;16.70;99.90;;;;;;4919595;29;20055;-69
2022/10/25 11:22:29;;;;;;;13.35;4.97;;;16.70;99.90;;;;;;4917172;29;20542;-69
2022/10/25 11:25:11;;;;;;;9.20;4.82;;;16.60;99.90;;;;;;4923579;29;20043;-69
2022/10/25 11:27:57;;;;;;;10.55;4.53;;;16.80;99.90;;;;;;4934692;29;20043;-68
2022/10/25 11:30:27;;;;;;;7.95;4.20;;;16.70;99.90;;;;;;4965508;28;20059;-69
2022/10/25 11:33:32;;;;;;;10.25;4.43;;;16.60;99.90;;;;;;4931132;29;20051;-68
2022/10/25 11:36:01;;;;;;;9.52;3.97;;;16.60;99.90;;;;;;4889958;29;20082;-68
2022/10/25 11:38:44;;;;;;;13.23;3.85;;;16.50;99.90;;;;;;4925856;29;20040;-70
2022/10/25 11:41:43;;;;;;;12.48;3.92;;;16.50;99.90;;;;;;4924456;29;20075;-67
2022/10/25 11:44:37;;;;;;;7.95;3.90;;;16.50;99.90;;;;;;4920068;29;20095;-68
2022/10/25 11:47:40;;;;;;;13.35;4.70;;;16.50;99.90;;;;;;4915030;29;20044;-68
2022/10/25 11:50:28;;;;;;;10.52;4.35;;;16.60;99.90;;;;;;4912277;29;20079;-68
2022/10/25 11:53:22;;;;;;;8.55;4.72;;;16.70;99.90;;;;;;4926521;29;20127;-71
2022/10/25 11:56:24;;;;;;;7.78;3.63;;;16.80;99.90;;;;;;4940999;29;20058;-70
2022/10/25 11:59:28;;;;;;;8.43;4.00;;;17.10;99.90;;;;;;4924196;29;20071;-69
2022/10/25 12:02:16;;;;;;;9.68;3.85;;;17.10;99.90;;;;;;4905257;29;20055;-69
2022/10/25 12:05:19;;;;;;;7.50;3.17;;;16.90;99.90;;;;;;4930164;29;20039;-67
2022/10/25 12:07:48;;;;;;;10.90;3.15;;;16.80;99.90;;;;;;4931994;29;20086;-68
2022/10/25 12:10:34;;;;;;;6.72;3.42;;;16.80;99.90;;;;;;4926315;29;20048;-67
2022/10/25 12:13:08;;;;;;;11.32;3.72;;;16.80;99.90;;;;;;4919201;29;20048;-68
2022/10/25 12:15:45;;;;;;;8.90;3.92;;;16.60;99.90;;;;;;4932341;29;20054;-69
2022/10/25 12:18:15;;;;;;;13.55;4.15;;;16.60;99.90;;;;;;4928703;29;20474;-70
2022/10/25 12:20:44;;;;;;;6.95;3.97;;;16.60;99.90;;;;;;4926747;29;20044;-68
2022/10/25 12:23:15;;;;;;;8.70;3.97;;;16.60;99.90;;;;;;4934602;29;20051;-67
2022/10/25 12:25:48;;;;;;;8.52;4.07;;;16.90;99.90;;;;;;4933577;29;20043;-67
2022/10/25 12:28:45;;;;;;;9.73;4.28;;;16.90;99.90;;;;;;4921598;29;20102;-70
2022/10/25 12:31:25;;;;;;;10.50;3.85;;;16.80;99.90;;;;;;4934458;29;20047;-67
2022/10/25 12:34:12;;;;;;;7.95;3.92;;;16.80;99.90;;;;;;4934671;29;20044;-68
2022/10/25 12:36:46;;;;;;;13.70;4.85;;;16.70;99.90;;;;;;4922400;29;20062;-67
2022/10/25 12:39:26;;;;;;;11.57;4.90;;;16.60;99.90;;;;;;4918464;29;20050;-67
2022/10/25 12:42:03;;;;;;;9.95;4.65;;;16.60;99.90;;;;;;4923786;29;20039;-67
2022/10/25 12:44:55;;;;;;;9.82;4.28;;;16.60;99.90;;;;;;4928653;29;20126;-68
2022/10/25 12:47:30;;;;;;;9.57;4.25;;;16.90;99.90;;;;;;4925076;29;20054;-70
2022/10/25 12:50:28;;;;;;;11.30;4.20;;;17.10;99.90;;;;;;4924465;29;20039;-67
2022/10/25 12:52:57;;;;;;;11.27;4.57;;;17.20;99.90;;;;;;4918059;29;20138;-68
2022/10/25 12:55:31;;;;;;;8.65;4.72;;;17.30;99.90;;;;;;4933314;29;20050;-67
2022/10/25 12:58:06;;;;;;;12.85;4.93;;;17.30;99.90;;;;;;4922997;29;20047;-67
2022/10/25 13:00:55;;;;;;;7.97;3.95;;;17.30;99.90;;;;;;4932576;29;20051;-67
2022/10/25 13:03:47;;;;;;;9.25;4.07;;;17.30;99.90;;;;;;4921224;29;20056;-67
2022/10/25 13:06:38;;;;;;;10.52;4.47;;;17.30;99.90;;;;;;4917881;29;20035;-69
2022/10/25 13:09:06;;;;;;;;;;;17.20;99.90;;;;;;4922107;29;20156;-67
2022/10/25 13:11:35;;;;;;;15.70;5.00;;;17.30;99.90;;;;;;4933432;29;19919;-67
2022/10/25 13:14:02;;;;;;;9.63;5.03;;;17.30;99.90;;;;;;4916742;29;20032;-69
2022/10/25 13:16:31;;;;;;;11.30;5.40;;;17.30;99.90;;;;;;4919471;29;20048;-66
2022/10/25 13:19:24;;;;;;;11.55;4.95;;;17.20;99.90;;;;;;4934312;29;20039;-66
2022/10/25 13:21:52;;;;;;;14.45;5.03;;;17.10;99.90;;;;;;4929677;29;20397;-67
2022/10/25 13:24:41;;;;;;;11.60;5.25;;;17.10;99.90;;;;;;4927656;29;20126;-67